ITY1766 LICJ-LIRF
Flight info
| Callsign | ITY1766 |
|---|---|
| Flight time | 0h 50m |
| Altitude | 34000 |
| Route | GIANO DCT TURMO DCT ESINO |
| Aircraft | A21N/M-SDE2E3FGHIRWXY/LB1 |
Departure
| Time | 2026-02-18 05:26 |
|---|---|
| Airport | Falcone–Borsellino Airport (LICJ) |
Arrival
| Time | 2026-02-18 06:16 |
|---|---|
| Airport | Rome–Fiumicino Leonardo da Vinci International Airport (LIRF) |
| Time | Latitude | Longitude | Altitude | Speed | Heading |
|---|---|---|---|---|---|
| 2026-02-18 05:15 | 38.18308 | 13.10016 | 48 ft | 0 kts | 246° |
| 2026-02-18 05:20 | 38.18291 | 13.09968 | 48 ft | 9 kts | 236° |
| 2026-02-18 05:20 | 38.18235 | 13.09969 | 51 ft | 7 kts | 158° |
| 2026-02-18 05:20 | 38.18194 | 13.09992 | 53 ft | 5 kts | 149° |
| 2026-02-18 05:21 | 38.18183 | 13.10035 | 55 ft | 6 kts | 78° |
| 2026-02-18 05:21 | 38.18202 | 13.10101 | 57 ft | 9 kts | 80° |
| 2026-02-18 05:21 | 38.18170 | 13.10165 | 61 ft | 9 kts | 128° |
| 2026-02-18 05:21 | 38.18174 | 13.10246 | 64 ft | 10 kts | 65° |
| 2026-02-18 05:22 | 38.18208 | 13.10346 | 66 ft | 14 kts | 67° |
| 2026-02-18 05:22 | 38.18250 | 13.10472 | 68 ft | 16 kts | 68° |
| 2026-02-18 05:22 | 38.18299 | 13.10617 | 69 ft | 20 kts | 66° |
| 2026-02-18 05:23 | 38.18422 | 13.10980 | 71 ft | 25 kts | 66° |
| 2026-02-18 05:23 | 38.18479 | 13.11152 | 69 ft | 22 kts | 67° |
| 2026-02-18 05:23 | 38.18529 | 13.11302 | 67 ft | 14 kts | 67° |
| 2026-02-18 05:23 | 38.18573 | 13.11437 | 64 ft | 16 kts | 66° |
| 2026-02-18 05:24 | 38.18614 | 13.11560 | 61 ft | 11 kts | 77° |
| 2026-02-18 05:24 | 38.18611 | 13.11661 | 60 ft | 0 kts | 97° |
| 2026-02-18 05:25 | 38.18601 | 13.11764 | 59 ft | 21 kts | 96° |
| 2026-02-18 05:25 | 38.18557 | 13.11889 | 57 ft | 11 kts | 156° |
| 2026-02-18 05:25 | 38.18490 | 13.11798 | 64 ft | 36 kts | 247° |
| 2026-02-18 05:25 | 38.18265 | 13.11127 | 83 ft | 127 kts | 247° |
| 2026-02-18 05:26 | 38.17833 | 13.09816 | 353 ft | 181 kts | 250° |
| 2026-02-18 05:26 | 38.17336 | 13.08254 | 1187 ft | 199 kts | 249° |
| 2026-02-18 05:26 | 38.16813 | 13.06719 | 2261 ft | 187 kts | 248° |
| 2026-02-18 05:27 | 38.15735 | 13.03462 | 3180 ft | 220 kts | 256° |
| 2026-02-18 05:27 | 38.15776 | 13.01501 | 3629 ft | 237 kts | 290° |
| 2026-02-18 05:27 | 38.16771 | 12.99773 | 4184 ft | 254 kts | 321° |
| 2026-02-18 05:27 | 38.18280 | 12.98556 | 5031 ft | 260 kts | 326° |
| 2026-02-18 05:28 | 38.19550 | 12.96987 | 5850 ft | 263 kts | 305° |
| 2026-02-18 05:28 | 38.20535 | 12.95035 | 6727 ft | 263 kts | 300° |
| 2026-02-18 05:28 | 38.21449 | 12.93042 | 7535 ft | 265 kts | 301° |
| 2026-02-18 05:28 | 38.22387 | 12.91036 | 8299 ft | 267 kts | 301° |
| 2026-02-18 05:29 | 38.23350 | 12.89014 | 9086 ft | 269 kts | 302° |
| 2026-02-18 05:29 | 38.24338 | 12.86970 | 9875 ft | 270 kts | 303° |
| 2026-02-18 05:29 | 38.25338 | 12.84918 | 10598 ft | 274 kts | 303° |
| 2026-02-18 05:29 | 38.26362 | 12.82828 | 10998 ft | 289 kts | 303° |
| 2026-02-18 05:30 | 38.27454 | 12.80601 | 11325 ft | 306 kts | 304° |
| 2026-02-18 05:30 | 38.28619 | 12.78234 | 11666 ft | 321 kts | 305° |
| 2026-02-18 05:30 | 38.30088 | 12.76154 | 12277 ft | 322 kts | 322° |
| 2026-02-18 05:31 | 38.34277 | 12.74215 | 13558 ft | 332 kts | 348° |
| 2026-02-18 05:31 | 38.36567 | 12.73522 | 13883 ft | 340 kts | 338° |
| 2026-02-18 05:31 | 38.38753 | 12.72362 | 14499 ft | 342 kts | 335° |
| 2026-02-18 05:31 | 38.40913 | 12.71188 | 15120 ft | 341 kts | 334° |
| 2026-02-18 05:32 | 38.43108 | 12.69973 | 15715 ft | 344 kts | 334° |
| 2026-02-18 05:32 | 38.45307 | 12.68740 | 16327 ft | 346 kts | 334° |
| 2026-02-18 05:32 | 38.47506 | 12.67496 | 16940 ft | 347 kts | 334° |
| 2026-02-18 05:32 | 38.49692 | 12.66251 | 17532 ft | 349 kts | 334° |
| 2026-02-18 05:33 | 38.51912 | 12.64984 | 18105 ft | 351 kts | 334° |
| 2026-02-18 05:33 | 38.54136 | 12.63711 | 18673 ft | 352 kts | 333° |
| 2026-02-18 05:33 | 38.56355 | 12.62437 | 19232 ft | 353 kts | 333° |
| 2026-02-18 05:33 | 38.58593 | 12.61152 | 19779 ft | 354 kts | 333° |
| 2026-02-18 05:34 | 38.60858 | 12.59849 | 20314 ft | 356 kts | 333° |
| 2026-02-18 05:34 | 38.63113 | 12.58550 | 20794 ft | 358 kts | 333° |
| 2026-02-18 05:34 | 38.65392 | 12.57236 | 21250 ft | 361 kts | 333° |
| 2026-02-18 05:35 | 38.69998 | 12.54576 | 22129 ft | 367 kts | 333° |
| 2026-02-18 05:35 | 38.72337 | 12.53223 | 22553 ft | 369 kts | 333° |
| 2026-02-18 05:35 | 38.74688 | 12.51862 | 22968 ft | 372 kts | 333° |
| 2026-02-18 05:35 | 38.77031 | 12.50504 | 23370 ft | 374 kts | 333° |
| 2026-02-18 05:36 | 38.79424 | 12.49118 | 23760 ft | 376 kts | 333° |
| 2026-02-18 05:36 | 38.81819 | 12.47730 | 24138 ft | 379 kts | 333° |
| 2026-02-18 05:36 | 38.84214 | 12.46397 | 24495 ft | 382 kts | 334° |
| 2026-02-18 05:36 | 38.86720 | 12.45202 | 24852 ft | 386 kts | 337° |
| 2026-02-18 05:37 | 38.89302 | 12.44169 | 25217 ft | 390 kts | 340° |
| 2026-02-18 05:37 | 38.91916 | 12.43308 | 25572 ft | 393 kts | 342° |
| 2026-02-18 05:37 | 38.94586 | 12.42492 | 25922 ft | 396 kts | 342° |
| 2026-02-18 05:37 | 38.97287 | 12.41678 | 26268 ft | 398 kts | 342° |
| 2026-02-18 05:38 | 38.99972 | 12.40870 | 26600 ft | 400 kts | 342° |
| 2026-02-18 05:38 | 39.02699 | 12.40051 | 26925 ft | 402 kts | 342° |
| 2026-02-18 05:38 | 39.05447 | 12.39224 | 27246 ft | 404 kts | 342° |
| 2026-02-18 05:39 | 39.10917 | 12.37578 | 28061 ft | 402 kts | 342° |
| 2026-02-18 05:39 | 39.13608 | 12.36768 | 28483 ft | 400 kts | 342° |
| 2026-02-18 05:39 | 39.16329 | 12.35947 | 28887 ft | 400 kts | 342° |
| 2026-02-18 05:39 | 39.19022 | 12.35133 | 29285 ft | 399 kts | 342° |
| 2026-02-18 05:40 | 39.21753 | 12.34306 | 29746 ft | 398 kts | 341° |
| 2026-02-18 05:40 | 39.24490 | 12.33477 | 30222 ft | 396 kts | 341° |
| 2026-02-18 05:40 | 39.27170 | 12.32665 | 30682 ft | 395 kts | 341° |
| 2026-02-18 05:40 | 39.29835 | 12.31857 | 31124 ft | 394 kts | 341° |
| 2026-02-18 05:41 | 39.32514 | 12.31044 | 31538 ft | 393 kts | 341° |
| 2026-02-18 05:41 | 39.35143 | 12.30246 | 31940 ft | 392 kts | 341° |
| 2026-02-18 05:41 | 39.37798 | 12.29439 | 32352 ft | 391 kts | 341° |
| 2026-02-18 05:41 | 39.40439 | 12.28635 | 32726 ft | 391 kts | 341° |
| 2026-02-18 05:42 | 39.43082 | 12.27830 | 33030 ft | 392 kts | 341° |
| 2026-02-18 05:42 | 39.45743 | 12.27018 | 33318 ft | 393 kts | 340° |
| 2026-02-18 05:42 | 39.48434 | 12.26196 | 33602 ft | 394 kts | 340° |
| 2026-02-18 05:43 | 39.53750 | 12.24573 | 34082 ft | 396 kts | 340° |
| 2026-02-18 05:43 | 39.56462 | 12.23744 | 34130 ft | 396 kts | 340° |
| 2026-02-18 05:43 | 39.61814 | 12.22107 | 34165 ft | 395 kts | 340° |
| 2026-02-18 05:44 | 39.67175 | 12.20463 | 34108 ft | 394 kts | 340° |
| 2026-02-18 05:44 | 39.72513 | 12.18823 | 34090 ft | 395 kts | 340° |
| 2026-02-18 05:45 | 39.77868 | 12.17176 | 34072 ft | 395 kts | 340° |
| 2026-02-18 05:45 | 39.83210 | 12.15531 | 34068 ft | 395 kts | 340° |
| 2026-02-18 05:46 | 39.88546 | 12.13885 | 34075 ft | 395 kts | 340° |
| 2026-02-18 05:47 | 39.96588 | 12.11400 | 34074 ft | 395 kts | 340° |
| 2026-02-18 05:47 | 40.01919 | 12.09749 | 34072 ft | 395 kts | 340° |
| 2026-02-18 05:48 | 40.07283 | 12.08084 | 34071 ft | 395 kts | 340° |
| 2026-02-18 05:48 | 40.12662 | 12.06414 | 34075 ft | 395 kts | 340° |
| 2026-02-18 05:49 | 40.18021 | 12.04748 | 34078 ft | 395 kts | 340° |
| 2026-02-18 05:49 | 40.23395 | 12.03073 | 34068 ft | 395 kts | 340° |
| 2026-02-18 05:50 | 40.28725 | 12.01409 | 34053 ft | 395 kts | 340° |
| 2026-02-18 05:50 | 40.34084 | 11.99733 | 34048 ft | 395 kts | 340° |
| 2026-02-18 05:51 | 40.42113 | 11.97216 | 34047 ft | 394 kts | 340° |
| 2026-02-18 05:51 | 40.47419 | 11.95548 | 34047 ft | 395 kts | 340° |
| 2026-02-18 05:52 | 40.52788 | 11.93858 | 34050 ft | 395 kts | 340° |
| 2026-02-18 05:52 | 40.55450 | 11.93020 | 33774 ft | 396 kts | 340° |
| 2026-02-18 05:52 | 40.58115 | 11.92181 | 33343 ft | 392 kts | 340° |
| 2026-02-18 05:53 | 40.60749 | 11.91351 | 32864 ft | 388 kts | 340° |
| 2026-02-18 05:53 | 40.63332 | 11.90535 | 32388 ft | 384 kts | 340° |
| 2026-02-18 05:53 | 40.65922 | 11.89715 | 31906 ft | 384 kts | 340° |
| 2026-02-18 05:53 | 40.68525 | 11.88886 | 31419 ft | 385 kts | 340° |
| 2026-02-18 05:54 | 40.71130 | 11.88056 | 30862 ft | 386 kts | 340° |
| 2026-02-18 05:54 | 40.73735 | 11.87226 | 30310 ft | 387 kts | 340° |
| 2026-02-18 05:54 | 40.76343 | 11.86397 | 29800 ft | 388 kts | 341° |
| 2026-02-18 05:55 | 40.81616 | 11.84727 | 28719 ft | 390 kts | 341° |
| 2026-02-18 05:55 | 40.84285 | 11.84015 | 28155 ft | 394 kts | 344° |
| 2026-02-18 05:55 | 40.87009 | 11.83467 | 27592 ft | 397 kts | 346° |
| 2026-02-18 05:55 | 40.89771 | 11.83090 | 27029 ft | 400 kts | 349° |
| 2026-02-18 05:56 | 40.92546 | 11.82852 | 26454 ft | 398 kts | 350° |
| 2026-02-18 05:56 | 40.95313 | 11.82645 | 26051 ft | 395 kts | 350° |
| 2026-02-18 05:56 | 40.98021 | 11.82447 | 25701 ft | 394 kts | 350° |
| 2026-02-18 05:56 | 41.00773 | 11.82248 | 25316 ft | 392 kts | 350° |
| 2026-02-18 05:57 | 41.03478 | 11.82052 | 24958 ft | 389 kts | 350° |
| 2026-02-18 05:57 | 41.06147 | 11.81859 | 24556 ft | 387 kts | 350° |
| 2026-02-18 05:57 | 41.08823 | 11.81665 | 24083 ft | 384 kts | 350° |
| 2026-02-18 05:57 | 41.11470 | 11.81473 | 23573 ft | 380 kts | 350° |
| 2026-02-18 05:58 | 41.14099 | 11.81281 | 23033 ft | 377 kts | 350° |
| 2026-02-18 05:58 | 41.16698 | 11.81091 | 22488 ft | 373 kts | 350° |
| 2026-02-18 05:58 | 41.19284 | 11.80976 | 22034 ft | 372 kts | 354° |
| 2026-02-18 05:59 | 41.24475 | 11.81455 | 21476 ft | 372 kts | 357° |
| 2026-02-18 05:59 | 41.27045 | 11.81726 | 21205 ft | 371 kts | 357° |
| 2026-02-18 05:59 | 41.29619 | 11.81985 | 20935 ft | 369 kts | 357° |
| 2026-02-18 05:59 | 41.32171 | 11.82230 | 20669 ft | 367 kts | 357° |
| 2026-02-18 06:00 | 41.34705 | 11.82462 | 20426 ft | 365 kts | 357° |
| 2026-02-18 06:00 | 41.37244 | 11.82697 | 20181 ft | 363 kts | 357° |
| 2026-02-18 06:00 | 41.39741 | 11.82926 | 19940 ft | 361 kts | 357° |
| 2026-02-18 06:00 | 41.42257 | 11.83149 | 19695 ft | 359 kts | 357° |
| 2026-02-18 06:01 | 41.44735 | 11.83374 | 19452 ft | 358 kts | 357° |
| 2026-02-18 06:01 | 41.47216 | 11.83589 | 19205 ft | 356 kts | 357° |
| 2026-02-18 06:01 | 41.49696 | 11.83811 | 18763 ft | 355 kts | 357° |
| 2026-02-18 06:01 | 41.52139 | 11.84027 | 18250 ft | 350 kts | 357° |
| 2026-02-18 06:02 | 41.54534 | 11.84237 | 17725 ft | 347 kts | 357° |
| 2026-02-18 06:02 | 41.56939 | 11.84448 | 17189 ft | 343 kts | 358° |
| 2026-02-18 06:02 | 41.59290 | 11.84663 | 16657 ft | 340 kts | 357° |
| 2026-02-18 06:03 | 41.63940 | 11.85080 | 15572 ft | 333 kts | 358° |
| 2026-02-18 06:03 | 41.66244 | 11.85282 | 15023 ft | 332 kts | 358° |
| 2026-02-18 06:03 | 41.68549 | 11.85492 | 14468 ft | 329 kts | 358° |
| 2026-02-18 06:03 | 41.70791 | 11.85695 | 13915 ft | 321 kts | 358° |
| 2026-02-18 06:04 | 41.72966 | 11.85891 | 13328 ft | 305 kts | 358° |
| 2026-02-18 06:04 | 41.75042 | 11.86081 | 12750 ft | 290 kts | 359° |
| 2026-02-18 06:04 | 41.77008 | 11.86260 | 12188 ft | 279 kts | 359° |
| 2026-02-18 06:04 | 41.78895 | 11.86427 | 11621 ft | 269 kts | 359° |
| 2026-02-18 06:05 | 41.80744 | 11.86590 | 11035 ft | 262 kts | 359° |
| 2026-02-18 06:05 | 41.82523 | 11.86745 | 10463 ft | 256 kts | 359° |
| 2026-02-18 06:05 | 41.84287 | 11.86899 | 10076 ft | 251 kts | 359° |
| 2026-02-18 06:05 | 41.86046 | 11.87051 | 9731 ft | 254 kts | 0° |
| 2026-02-18 06:06 | 41.87800 | 11.87204 | 9184 ft | 253 kts | 0° |
| 2026-02-18 06:06 | 41.89547 | 11.87358 | 8633 ft | 251 kts | 1° |
| 2026-02-18 06:06 | 41.91275 | 11.87511 | 8088 ft | 250 kts | 1° |
| 2026-02-18 06:07 | 41.94722 | 11.87824 | 6997 ft | 248 kts | 2° |
| 2026-02-18 06:07 | 41.96438 | 11.87981 | 6453 ft | 247 kts | 2° |
| 2026-02-18 06:07 | 41.98151 | 11.88211 | 5899 ft | 248 kts | 13° |
| 2026-02-18 06:07 | 41.99639 | 11.89308 | 5526 ft | 242 kts | 45° |
| 2026-02-18 06:08 | 42.00482 | 11.91201 | 5217 ft | 237 kts | 69° |
| 2026-02-18 06:08 | 42.00976 | 11.93303 | 4910 ft | 238 kts | 73° |
| 2026-02-18 06:08 | 42.01413 | 11.95439 | 4597 ft | 238 kts | 74° |
| 2026-02-18 06:08 | 42.01850 | 11.97596 | 4283 ft | 238 kts | 74° |
| 2026-02-18 06:09 | 42.02291 | 11.99756 | 3970 ft | 239 kts | 74° |
| 2026-02-18 06:09 | 42.02684 | 12.01905 | 3653 ft | 240 kts | 83° |
| 2026-02-18 06:09 | 42.02438 | 12.04112 | 3319 ft | 241 kts | 115° |
| 2026-02-18 06:09 | 42.01465 | 12.05946 | 3052 ft | 239 kts | 131° |
| 2026-02-18 06:10 | 42.00355 | 12.07539 | 2993 ft | 229 kts | 133° |
| 2026-02-18 06:10 | 41.99263 | 12.09038 | 2986 ft | 217 kts | 134° |
| 2026-02-18 06:10 | 41.98249 | 12.10418 | 3088 ft | 203 kts | 134° |
| 2026-02-18 06:11 | 41.96319 | 12.13031 | 2941 ft | 187 kts | 134° |
| 2026-02-18 06:11 | 41.95435 | 12.14226 | 2756 ft | 176 kts | 134° |
| 2026-02-18 06:11 | 41.94603 | 12.15347 | 2555 ft | 162 kts | 134° |
| 2026-02-18 06:11 | 41.93857 | 12.16348 | 2488 ft | 141 kts | 134° |
| 2026-02-18 06:12 | 41.93167 | 12.17270 | 2497 ft | 139 kts | 134° |
| 2026-02-18 06:12 | 41.92477 | 12.18190 | 2510 ft | 138 kts | 134° |
| 2026-02-18 06:12 | 41.91805 | 12.19105 | 2484 ft | 137 kts | 130° |
| 2026-02-18 06:12 | 41.91218 | 12.20065 | 2273 ft | 129 kts | 125° |
| 2026-02-18 06:13 | 41.90723 | 12.21045 | 1988 ft | 128 kts | 120° |
| 2026-02-18 06:13 | 41.90247 | 12.22055 | 1696 ft | 131 kts | 123° |
| 2026-02-18 06:13 | 41.89652 | 12.23034 | 1564 ft | 137 kts | 133° |
| 2026-02-18 06:13 | 41.88913 | 12.23844 | 1430 ft | 137 kts | 144° |
| 2026-02-18 06:14 | 41.88096 | 12.24465 | 1214 ft | 132 kts | 153° |
| 2026-02-18 06:14 | 41.87273 | 12.24975 | 911 ft | 132 kts | 155° |
| 2026-02-18 06:14 | 41.86413 | 12.25386 | 613 ft | 132 kts | 161° |
| 2026-02-18 06:15 | 41.84675 | 12.26115 | 79 ft | 128 kts | 160° |
| 2026-02-18 06:15 | 41.83873 | 12.26454 | 4 ft | 109 kts | 161° |
| 2026-02-18 06:15 | 41.83269 | 12.26707 | 3 ft | 74 kts | 161° |
| 2026-02-18 06:15 | 41.82844 | 12.26880 | 4 ft | 57 kts | 162° |
| 2026-02-18 06:16 | 41.82458 | 12.27046 | 3 ft | 57 kts | 162° |
| 2026-02-18 06:16 | 41.82082 | 12.27143 | 3 ft | 53 kts | 186° |
| 2026-02-18 06:16 | 41.81800 | 12.27061 | 4 ft | 33 kts | 193° |
| 2026-02-18 06:16 | 41.81577 | 12.27091 | 4 ft | 31 kts | 162° |
| 2026-02-18 06:17 | 41.81372 | 12.27176 | 4 ft | 30 kts | 162° |
| 2026-02-18 06:17 | 41.81173 | 12.27262 | 4 ft | 29 kts | 162° |
| 2026-02-18 06:17 | 41.80980 | 12.27337 | 5 ft | 28 kts | 163° |
| 2026-02-18 06:17 | 41.80790 | 12.27327 | 5 ft | 27 kts | 188° |
| 2026-02-18 06:18 | 41.80646 | 12.27198 | 5 ft | 25 kts | 251° |
| 2026-02-18 06:18 | 41.80587 | 12.26974 | 5 ft | 25 kts | 250° |
| 2026-02-18 06:18 | 41.80523 | 12.26753 | 5 ft | 25 kts | 249° |
| 2026-02-18 06:19 | 41.80408 | 12.26332 | 9 ft | 23 kts | 250° |
| 2026-02-18 06:19 | 41.80350 | 12.26136 | 12 ft | 21 kts | 234° |
| 2026-02-18 06:19 | 41.80218 | 12.26038 | 12 ft | 22 kts | 201° |
| 2026-02-18 06:19 | 41.80080 | 12.25953 | 12 ft | 22 kts | 204° |
| 2026-02-18 06:20 | 41.79939 | 12.25864 | 13 ft | 21 kts | 204° |
| 2026-02-18 06:20 | 41.79809 | 12.25773 | 16 ft | 21 kts | 206° |
| 2026-02-18 06:20 | 41.79690 | 12.25716 | 16 ft | 16 kts | 171° |
| 2026-02-18 06:20 | 41.79641 | 12.25753 | 16 ft | 4 kts | 104° |
| 2026-02-18 06:21 | 41.79631 | 12.25785 | 17 ft | 0 kts | 115° |